Terminal Aerodrome Forecast
Issued by NWS

Home | Current Version | Previous Version | Graphics & Text | Print | Product List | Glossary On
Versions: 1 2 3 4 5 6 7 8 9 10 11 12 13 14 15 16 17 18 19
000
FTUS43 KMPX 300241 AAA
TAFAXN
TAF AMD
KAXN 300241Z 3003/3024 28004KT 2SM -SN BR BKN003 OVC008
     FM300600 33005KT 1 1/2SM -SN BR OVC003
     FM301800 34009KT 3SM -RASN BR OVC008=

USA.gov is the U.S. government's official web portal to all federal, state and local government web resources and services.